Time;durP1;ratioP1;P1;durP2;ratioP2;P2;SDS_P1;SDS_P2;PMS_P1;PMS_P2;Temp;Humidity;BMP_temperature;BMP_pressure;BME280_temperature;BME280_humidity;BME280_pressure;Samples;Min_cycle;Max_cycle;Signal;HPM_P1;HPM_P2
2020/12/16 00:01:10;;;;;;;8.80;4.70;;;3.80;99.90;;;;;;5028931;28;20075;-54
2020/12/16 00:03:36;;;;;;;11.38;4.85;;;3.70;99.90;;;;;;5027861;28;20165;-48
2020/12/16 00:06:02;;;;;;;12.40;5.80;;;3.70;99.90;;;;;;5028837;28;20064;-52
2020/12/16 00:08:28;;;;;;;10.90;5.20;;;3.70;99.90;;;;;;5028015;28;20036;-49
2020/12/16 00:10:54;;;;;;;11.80;4.95;;;3.70;99.90;;;;;;5028621;28;20112;-52
2020/12/16 00:13:20;;;;;;;11.23;5.95;;;3.60;99.90;;;;;;5027541;28;20037;-49
2020/12/16 00:15:46;;;;;;;13.35;5.65;;;3.60;99.90;;;;;;5026364;28;20451;-54
2020/12/16 00:18:12;;;;;;;11.30;6.18;;;3.70;99.90;;;;;;5041857;28;20033;-54
2020/12/16 00:20:38;;;;;;;11.98;6.18;;;3.70;99.90;;;;;;5027502;28;20033;-54
2020/12/16 00:23:04;;;;;;;16.05;6.82;;;3.60;99.90;;;;;;5028446;28;20040;-54
2020/12/16 00:25:29;;;;;;;12.95;6.38;;;3.60;99.90;;;;;;5027523;28;20034;-51
2020/12/16 00:27:55;;;;;;;9.77;5.28;;;3.60;99.90;;;;;;5027507;28;20591;-51
2020/12/16 00:30:21;;;;;;;11.95;5.47;;;3.50;99.90;;;;;;5028479;28;20638;-53
2020/12/16 00:32:47;;;;;;;12.57;5.60;;;3.50;99.90;;;;;;5027748;28;20178;-51
2020/12/16 00:35:12;;;;;;;11.63;6.13;;;3.40;99.90;;;;;;5027949;28;20026;-50
2020/12/16 00:37:41;;;;;;;9.82;5.50;;;3.40;99.90;;;;;;5025736;28;20037;-50
2020/12/16 00:40:08;;;;;;;9.77;5.18;;;3.40;99.90;;;;;;5022758;28;20045;-53
2020/12/16 00:42:34;;;;;;;10.40;5.82;;;3.40;99.90;;;;;;5028212;28;20046;-49
2020/12/16 00:45:00;;;;;;;10.07;5.25;;;3.40;99.90;;;;;;5027334;28;20121;-51
2020/12/16 00:47:26;;;;;;;10.88;5.25;;;3.40;99.90;;;;;;5028166;28;20171;-53
2020/12/16 00:49:52;;;;;;;10.30;5.45;;;3.40;99.90;;;;;;5027317;28;20072;-51
2020/12/16 00:52:18;;;;;;;8.45;4.68;;;3.40;99.90;;;;;;5028105;28;20038;-52
2020/12/16 00:54:45;;;;;;;9.07;5.28;;;3.40;99.90;;;;;;5027945;28;20033;-54
2020/12/16 00:57:10;;;;;;;9.43;4.68;;;3.40;99.90;;;;;;5031970;28;20082;-53
2020/12/16 00:59:36;;;;;;;9.60;4.55;;;3.50;99.90;;;;;;5023413;28;20458;-51
2020/12/16 01:02:04;;;;;;;11.18;5.40;;;3.50;99.90;;;;;;5027329;28;20048;-48
2020/12/16 01:04:30;;;;;;;9.23;4.78;;;3.50;99.90;;;;;;5031699;28;20034;-53
2020/12/16 01:06:56;;;;;;;11.57;4.43;;;3.40;99.90;;;;;;5027998;28;20045;-54
2020/12/16 01:09:22;;;;;;;9.77;3.95;;;3.40;99.90;;;;;;5028447;28;20179;-50
2020/12/16 01:11:47;;;;;;;7.25;4.68;;;3.40;99.90;;;;;;5031119;28;20029;-55
2020/12/16 01:14:13;;;;;;;9.23;4.57;;;3.40;99.90;;;;;;5030985;28;20045;-51
2020/12/16 01:16:39;;;;;;;6.10;3.95;;;3.40;99.90;;;;;;5030934;28;20124;-48
2020/12/16 01:19:06;;;;;;;9.10;4.60;;;3.40;99.90;;;;;;5046972;28;20087;-49
2020/12/16 01:21:36;;;;;;;10.00;4.60;;;3.30;99.90;;;;;;5028567;28;20064;-50
2020/12/16 01:24:05;;;;;;;8.65;4.47;;;3.30;99.90;;;;;;5031469;28;20037;-50
2020/12/16 01:26:40;;;;;;;12.52;5.25;;;3.30;99.90;;;;;;5030065;28;20037;-52
2020/12/16 01:29:06;;;;;;;8.50;4.25;;;3.40;99.90;;;;;;5031084;28;20036;-52
2020/12/16 01:31:43;;;;;;;8.65;4.78;;;3.40;99.90;;;;;;5030127;28;20029;-53
2020/12/16 01:34:09;;;;;;;10.52;4.53;;;3.40;99.90;;;;;;5031109;28;20392;-52
2020/12/16 01:36:42;;;;;;;10.75;5.22;;;3.40;99.90;;;;;;5029463;28;20254;-50
2020/12/16 01:39:10;;;;;;;8.23;4.28;;;3.30;99.90;;;;;;5031076;28;20033;-54
2020/12/16 01:41:40;;;;;;;11.73;4.22;;;3.40;99.90;;;;;;5029973;28;20095;-53
2020/12/16 01:44:22;;;;;;;9.63;5.05;;;3.40;99.90;;;;;;5031061;28;20110;-49
2020/12/16 01:46:52;;;;;;;10.10;4.72;;;3.30;99.90;;;;;;5028356;28;20041;-52
2020/12/16 01:49:19;;;;;;;10.32;4.88;;;3.40;99.90;;;;;;5031120;28;20113;-50
2020/12/16 01:51:50;;;;;;;9.82;4.85;;;3.30;99.90;;;;;;5029773;28;20124;-52
2020/12/16 01:54:18;;;;;;;9.63;4.13;;;3.30;99.90;;;;;;5030977;28;20037;-50
2020/12/16 01:56:49;;;;;;;10.32;4.97;;;3.30;99.90;;;;;;5029459;28;20029;-52
2020/12/16 01:59:16;;;;;;;10.60;4.50;;;3.30;99.90;;;;;;5030608;28;20438;-52
2020/12/16 02:01:45;;;;;;;11.23;5.20;;;3.30;99.90;;;;;;5029301;28;20044;-53
2020/12/16 02:04:12;;;;;;;10.60;5.38;;;3.30;99.90;;;;;;5030830;28;20042;-52
2020/12/16 02:06:41;;;;;;;12.57;4.75;;;3.30;99.90;;;;;;5027851;28;20025;-48
2020/12/16 02:09:09;;;;;;;9.75;4.72;;;3.30;99.90;;;;;;5029947;28;20397;-51
2020/12/16 02:11:36;;;;;;;10.15;4.68;;;3.30;99.90;;;;;;5029338;28;20025;-55
2020/12/16 02:14:05;;;;;;;7.65;4.05;;;3.30;99.90;;;;;;5030020;28;20060;-56
2020/12/16 02:16:31;;;;;;;9.60;4.18;;;3.30;99.90;;;;;;5029085;28;20041;-49
2020/12/16 02:18:57;;;;;;;11.65;4.63;;;3.30;99.90;;;;;;5028812;28;20041;-54
2020/12/16 02:21:22;;;;;;;7.57;4.18;;;3.30;99.90;;;;;;5029028;28;20553;-51
2020/12/16 02:23:51;;;;;;;8.93;4.45;;;3.30;99.90;;;;;;5030213;28;20033;-50
2020/12/16 02:26:17;;;;;;;8.32;4.22;;;3.30;99.90;;;;;;5028939;28;20485;-51
2020/12/16 02:28:43;;;;;;;10.52;4.38;;;3.30;99.90;;;;;;5029139;28;20110;-50
2020/12/16 02:31:10;;;;;;;10.05;4.40;;;3.30;99.90;;;;;;5027609;28;20041;-54
2020/12/16 02:33:36;;;;;;;11.38;4.88;;;3.30;99.90;;;;;;5030249;28;20045;-53
2020/12/16 02:36:03;;;;;;;10.30;4.75;;;3.30;99.90;;;;;;5027853;28;20375;-48
2020/12/16 02:38:29;;;;;;;9.32;4.75;;;3.30;99.90;;;;;;5027622;28;20032;-53
2020/12/16 02:40:55;;;;;;;10.15;5.32;;;3.30;99.90;;;;;;5027768;28;20040;-55
2020/12/16 02:43:20;;;;;;;9.52;4.05;;;3.30;99.90;;;;;;5028917;28;20033;-57
2020/12/16 02:45:46;;;;;;;8.02;3.88;;;3.30;99.90;;;;;;5029527;28;20427;-55
2020/12/16 02:48:13;;;;;;;10.90;5.03;;;3.30;99.90;;;;;;5029035;28;20485;-49
2020/12/16 02:50:40;;;;;;;8.50;4.22;;;3.30;99.90;;;;;;5029723;28;20117;-49
2020/12/16 02:53:07;;;;;;;8.60;4.68;;;3.20;99.90;;;;;;5028252;28;20060;-48
2020/12/16 02:55:32;;;;;;;6.85;4.13;;;3.20;99.90;;;;;;5028513;28;20086;-50
2020/12/16 02:57:58;;;;;;;5.30;2.80;;;3.20;99.90;;;;;;5147518;23;20057;-51
2020/12/16 03:00:24;;;;;;;7.80;4.03;;;3.20;99.90;;;;;;5029637;28;20065;-54
2020/12/16 03:02:50;;;;;;;8.02;4.57;;;3.20;99.90;;;;;;5029680;28;20041;-56
2020/12/16 03:05:15;;;;;;;11.93;6.15;;;3.20;99.90;;;;;;5029771;28;20037;-55
2020/12/16 03:07:41;;;;;;;9.43;4.65;;;3.10;99.90;;;;;;5029697;28;20485;-51
2020/12/16 03:10:07;;;;;;;7.82;4.47;;;3.00;99.90;;;;;;5029229;28;20026;-56
2020/12/16 03:12:32;;;;;;;8.15;4.65;;;2.90;99.90;;;;;;5029332;28;20038;-54
2020/12/16 03:14:58;;;;;;;10.10;4.38;;;2.90;99.90;;;;;;5029467;28;20037;-51
2020/12/16 03:17:24;;;;;;;8.07;4.85;;;2.80;99.90;;;;;;5029051;28;20123;-55
2020/12/16 03:19:50;;;;;;;14.25;5.20;;;2.90;99.90;;;;;;5028926;28;20029;-52
2020/12/16 03:22:15;;;;;;;7.57;4.38;;;2.90;99.90;;;;;;5029373;28;20396;-53
2020/12/16 03:24:41;;;;;;;12.15;4.53;;;3.00;99.90;;;;;;5029006;28;20037;-54
2020/12/16 03:27:07;;;;;;;6.93;3.70;;;3.10;99.90;;;;;;5029319;28;20341;-55
2020/12/16 03:29:32;;;;;;;9.63;4.05;;;3.20;99.90;;;;;;5029550;28;20450;-54
2020/12/16 03:31:58;;;;;;;9.50;4.50;;;3.20;99.90;;;;;;5028891;28;20130;-56
2020/12/16 03:34:24;;;;;;;7.07;3.85;;;3.20;99.90;;;;;;5028836;28;20033;-57
2020/12/16 03:36:50;;;;;;;7.35;4.50;;;3.20;99.90;;;;;;5028827;28;20108;-55
2020/12/16 03:39:16;;;;;;;7.68;4.30;;;3.30;99.90;;;;;;5029049;28;20044;-54
2020/12/16 03:41:41;;;;;;;7.68;4.53;;;3.20;99.90;;;;;;5028765;28;20037;-55
2020/12/16 03:44:07;;;;;;;11.70;5.60;;;3.20;99.90;;;;;;5028763;28;20045;-55
2020/12/16 03:46:33;;;;;;;10.80;4.68;;;3.20;99.90;;;;;;5029027;28;20099;-56
2020/12/16 03:48:58;;;;;;;8.85;4.47;;;3.20;99.90;;;;;;5028823;28;20030;-55
2020/12/16 03:51:24;;;;;;;7.53;4.25;;;3.20;99.90;;;;;;5028588;28;20414;-50
2020/12/16 03:53:50;;;;;;;9.48;4.53;;;3.20;99.90;;;;;;5028684;28;20076;-50
2020/12/16 03:56:16;;;;;;;6.90;3.83;;;3.20;99.90;;;;;;5028849;28;20033;-52
2020/12/16 03:58:48;;;;;;;8.27;4.13;;;3.20;99.90;;;;;;5028289;28;20057;-51
2020/12/16 04:01:17;;;;;;;8.13;4.00;;;3.20;99.90;;;;;;5028795;28;20033;-52
2020/12/16 04:03:43;;;;;;;8.98;4.15;;;3.30;99.90;;;;;;5028280;28;20112;-54
2020/12/16 04:06:10;;;;;;;8.60;4.35;;;3.30;99.90;;;;;;5028242;28;20025;-48
2020/12/16 04:08:37;;;;;;;10.07;4.07;;;3.30;99.90;;;;;;5028367;28;20029;-54
2020/12/16 04:11:07;;;;;;;8.70;3.75;;;3.20;99.90;;;;;;5028518;28;20047;-52
2020/12/16 04:13:33;;;;;;;8.57;3.97;;;3.30;99.90;;;;;;5028601;28;20124;-52
2020/12/16 04:15:59;;;;;;;8.32;4.13;;;3.20;99.90;;;;;;5028515;28;20116;-53
2020/12/16 04:18:25;;;;;;;9.07;3.72;;;3.20;99.90;;;;;;5028141;28;20116;-49
2020/12/16 04:20:50;;;;;;;6.65;3.80;;;3.20;99.90;;;;;;5028304;28;20148;-57
2020/12/16 04:23:16;;;;;;;8.43;3.70;;;3.20;99.90;;;;;;5028228;28;20027;-54
2020/12/16 04:25:42;;;;;;;8.35;3.28;;;3.10;99.90;;;;;;5027152;28;20037;-54
2020/12/16 04:28:08;;;;;;;11.20;4.35;;;3.10;99.90;;;;;;5028332;28;20489;-53
2020/12/16 04:30:33;;;;;;;8.25;3.45;;;3.10;99.90;;;;;;5030612;28;20376;-51
2020/12/16 04:32:59;;;;;;;7.10;4.18;;;3.10;99.90;;;;;;5032153;28;20022;-51
2020/12/16 04:35:29;;;;;;;6.43;3.30;;;3.10;99.90;;;;;;5031974;28;20035;-48
2020/12/16 04:37:56;;;;;;;7.63;3.55;;;3.10;99.90;;;;;;5032114;28;20413;-52
2020/12/16 04:40:23;;;;;;;8.10;3.75;;;3.10;99.90;;;;;;5032193;28;20061;-53
2020/12/16 04:43:09;;;;;;;8.00;3.95;;;3.10;99.90;;;;;;5031869;28;20056;-50
2020/12/16 04:45:38;;;;;;;;;;;3.10;99.90;;;;;;5032409;28;20068;-52
2020/12/16 04:48:06;;;;;;;8.00;3.70;;;3.10;99.90;;;;;;5032202;28;19999;-51
2020/12/16 04:50:31;;;;;;;7.78;3.58;;;3.10;99.90;;;;;;5031810;28;20108;-53
2020/12/16 04:53:04;;;;;;;8.30;4.05;;;3.10;99.90;;;;;;5031707;28;20045;-55
2020/12/16 04:55:31;;;;;;;6.65;3.63;;;3.10;99.90;;;;;;5031626;28;20076;-55
2020/12/16 04:58:00;;;;;;;7.45;3.90;;;3.10;99.90;;;;;;5031639;28;20053;-55
2020/12/16 05:00:26;;;;;;;8.27;4.20;;;3.10;99.90;;;;;;5046764;28;20029;-49
2020/12/16 05:02:59;;;;;;;8.32;4.38;;;3.00;99.90;;;;;;5031626;28;20037;-48
2020/12/16 05:05:25;;;;;;;8.45;3.88;;;3.10;99.90;;;;;;5031689;28;20055;-53
2020/12/16 05:07:51;;;;;;;9.05;4.50;;;3.10;99.90;;;;;;5031469;28;20021;-53
2020/12/16 05:10:34;;;;;;;7.50;3.65;;;3.10;99.90;;;;;;5031709;28;20040;-50
2020/12/16 05:13:05;;;;;;;7.70;4.00;;;3.10;99.90;;;;;;5031604;28;20030;-51
2020/12/16 05:15:32;;;;;;;8.43;3.75;;;3.10;99.90;;;;;;5031443;28;20038;-48
2020/12/16 05:18:10;;;;;;;8.38;3.65;;;3.10;99.90;;;;;;5031256;28;20580;-54
2020/12/16 05:20:38;;;;;;;9.38;3.65;;;3.10;99.90;;;;;;5031450;28;20033;-53
2020/12/16 05:23:05;;;;;;;6.90;3.75;;;3.10;99.90;;;;;;5031530;28;20419;-49
2020/12/16 05:25:32;;;;;;;5.68;2.97;;;3.20;99.90;;;;;;5031193;28;20120;-54
2020/12/16 05:27:58;;;;;;;5.90;3.28;;;3.20;99.90;;;;;;5031045;28;20513;-48
2020/12/16 05:30:24;;;;;;;8.23;3.28;;;3.10;99.90;;;;;;5031022;28;20038;-54
2020/12/16 05:32:51;;;;;;;7.45;3.65;;;3.20;99.90;;;;;;5027591;28;20029;-53
2020/12/16 05:35:28;;;;;;;9.73;3.72;;;3.20;99.90;;;;;;5030347;28;20026;-50
2020/12/16 05:38:14;;;;;;;7.13;3.22;;;3.20;99.90;;;;;;5026775;28;20045;-50
2020/12/16 05:40:41;;;;;;;9.18;3.85;;;3.20;99.90;;;;;;5029733;28;20045;-53
2020/12/16 05:43:07;;;;;;;8.23;3.42;;;3.30;99.90;;;;;;5030263;28;20033;-51
2020/12/16 05:45:40;;;;;;;8.48;3.38;;;3.30;99.90;;;;;;5030006;28;20095;-55
2020/12/16 05:48:11;;;;;;;5.55;3.15;;;3.30;99.90;;;;;;5028314;28;20029;-55
2020/12/16 05:50:38;;;;;;;7.88;3.40;;;3.30;99.90;;;;;;5030656;28;20026;-51
2020/12/16 05:53:20;;;;;;;6.78;3.45;;;3.40;99.90;;;;;;5030166;28;20123;-51
2020/12/16 05:55:51;;;;;;;7.95;4.03;;;3.40;99.90;;;;;;5030029;28;20033;-49
2020/12/16 05:58:19;;;;;;;7.60;3.63;;;3.40;99.90;;;;;;5029709;28;20696;-54
2020/12/16 06:00:49;;;;;;;8.02;3.42;;;3.30;99.90;;;;;;5027332;28;20107;-55
2020/12/16 06:03:27;;;;;;;6.93;3.50;;;3.40;99.90;;;;;;5028912;28;20508;-54
2020/12/16 06:06:00;;;;;;;5.82;3.20;;;3.40;99.90;;;;;;5015640;28;20040;-48
2020/12/16 06:08:29;;;;;;;8.18;3.15;;;3.40;99.90;;;;;;5030408;28;20040;-56
2020/12/16 06:10:55;;;;;;;7.10;3.47;;;3.40;99.90;;;;;;5030029;28;20120;-52
2020/12/16 06:13:21;;;;;;;9.82;3.38;;;3.40;99.90;;;;;;5030464;28;20167;-52
2020/12/16 06:15:51;;;;;;;6.22;3.47;;;3.40;99.90;;;;;;5026160;28;20088;-53
2020/12/16 06:18:19;;;;;;;7.72;2.90;;;3.40;99.90;;;;;;5025643;28;20117;-52
2020/12/16 06:20:44;;;;;;;9.75;3.65;;;3.50;99.90;;;;;;5022023;28;20334;-50
2020/12/16 06:23:25;;;;;;;6.30;3.45;;;3.50;99.90;;;;;;5028854;28;20103;-55
2020/12/16 06:25:54;;;;;;;6.88;3.20;;;3.50;99.90;;;;;;5029887;28;20444;-55
2020/12/16 06:28:20;;;;;;;5.63;2.83;;;3.60;99.90;;;;;;5025965;28;20370;-54
2020/12/16 06:31:07;;;;;;;6.40;3.10;;;3.60;99.90;;;;;;5029200;28;20108;-53
2020/12/16 06:33:59;;;;;;;8.93;3.83;;;3.60;99.90;;;;;;5029065;28;20040;-51
2020/12/16 06:36:28;;;;;;;9.23;3.85;;;3.60;99.90;;;;;;5029188;28;20037;-48
2020/12/16 06:38:54;;;;;;;7.72;3.60;;;3.60;99.90;;;;;;5028944;28;20053;-55
2020/12/16 06:41:32;;;;;;;8.88;4.25;;;3.60;99.90;;;;;;5020315;28;20080;-54
2020/12/16 06:44:11;;;;;;;7.63;3.47;;;3.50;99.90;;;;;;5010774;28;20064;-50
2020/12/16 06:46:42;;;;;;;7.82;4.03;;;3.50;99.90;;;;;;5029719;28;20037;-53
2020/12/16 06:49:09;;;;;;;9.68;4.22;;;3.60;99.90;;;;;;5030131;28;20037;-55
2020/12/16 06:51:46;;;;;;;8.52;3.95;;;3.50;99.90;;;;;;5026519;28;20424;-53
2020/12/16 06:54:16;;;;;;;9.50;4.55;;;3.60;99.90;;;;;;5018366;28;20044;-51
2020/12/16 06:56:47;;;;;;;8.15;4.00;;;3.50;99.90;;;;;;5029514;28;20040;-52
2020/12/16 06:59:14;;;;;;;6.18;3.33;;;3.50;99.90;;;;;;5027742;28;20186;-51
2020/12/16 07:01:40;;;;;;;8.75;3.88;;;3.60;99.90;;;;;;5028529;28;20037;-51
2020/12/16 07:04:12;;;;;;;10.30;4.70;;;3.60;99.90;;;;;;5029607;28;20029;-54
2020/12/16 07:06:42;;;;;;;12.07;4.45;;;3.60;99.90;;;;;;5028606;28;20409;-54
2020/12/16 07:09:22;;;;;;;8.50;3.95;;;3.60;99.90;;;;;;5029262;28;20041;-53
2020/12/16 07:11:53;;;;;;;11.73;4.53;;;3.60;99.90;;;;;;5015165;28;20037;-52
2020/12/16 07:14:21;;;;;;;11.45;4.25;;;3.60;99.90;;;;;;5024273;28;20115;-51
2020/12/16 07:16:48;;;;;;;12.00;5.45;;;3.60;99.90;;;;;;5029258;28;20041;-51
2020/12/16 07:19:27;;;;;;;14.00;4.70;;;3.60;99.90;;;;;;5028595;28;20044;-49
2020/12/16 07:21:55;;;;;;;10.30;4.90;;;3.60;99.90;;;;;;5026482;28;20100;-54
2020/12/16 07:24:22;;;;;;;11.45;4.60;;;3.60;99.90;;;;;;5024948;28;20029;-51
2020/12/16 07:26:53;;;;;;;14.98;4.93;;;3.60;99.90;;;;;;5023847;28;20052;-52
2020/12/16 07:29:36;;;;;;;14.07;6.43;;;3.70;99.90;;;;;;5028333;28;20095;-50
2020/12/16 07:32:06;;;;;;;16.48;6.78;;;3.70;99.90;;;;;;5029027;28;20053;-51
2020/12/16 07:34:50;;;;;;;14.77;6.07;;;3.70;99.90;;;;;;5011722;28;20037;-52
2020/12/16 07:37:18;;;;;;;12.18;4.97;;;3.70;99.90;;;;;;5023170;28;20112;-53
2020/12/16 07:39:55;;;;;;;14.85;5.10;;;3.70;99.90;;;;;;5028955;28;20025;-56
2020/12/16 07:42:29;;;;;;;9.70;4.68;;;3.80;99.90;;;;;;5023598;28;20092;-52
2020/12/16 07:44:56;;;;;;;11.30;4.78;;;3.80;99.90;;;;;;5024794;28;20033;-49
2020/12/16 07:47:23;;;;;;;9.88;4.82;;;3.90;99.90;;;;;;5023771;28;20033;-50
2020/12/16 07:49:48;;;;;;;12.20;4.80;;;3.90;99.90;;;;;;5009224;28;20378;-51
2020/12/16 07:52:15;;;;;;;11.13;5.10;;;3.90;99.90;;;;;;5009242;28;20070;-48
2020/12/16 07:54:40;;;;;;;15.27;5.53;;;3.90;99.90;;;;;;5016051;28;20494;-50
2020/12/16 07:57:06;;;;;;;10.98;5.07;;;3.90;99.90;;;;;;5018117;28;20037;-51
2020/12/16 07:59:37;;;;;;;9.40;5.25;;;3.90;99.90;;;;;;5017473;28;20426;-50
2020/12/16 08:02:13;;;;;;;11.80;4.80;;;4.00;99.90;;;;;;5024356;28;20096;-51
2020/12/16 08:04:41;;;;;;;;;;;3.90;99.90;;;;;;5017069;28;20033;-53
2020/12/16 08:07:12;;;;;;;11.23;4.60;;;4.00;99.90;;;;;;5017614;28;19913;-53
2020/12/16 08:09:37;;;;;;;11.02;4.57;;;4.00;99.90;;;;;;5008920;28;20304;-50
2020/12/16 08:12:03;;;;;;;8.85;4.25;;;4.00;99.90;;;;;;5024480;28;20583;-50
2020/12/16 08:14:29;;;;;;;11.63;5.72;;;4.00;99.90;;;;;;5021373;28;20121;-50
2020/12/16 08:17:09;;;;;;;15.05;7.18;;;4.20;99.90;;;;;;5018333;28;20124;-52
2020/12/16 08:19:34;;;;;;;12.73;4.75;;;4.20;99.90;;;;;;5028634;28;20041;-50
2020/12/16 08:22:13;;;;;;;10.90;5.20;;;4.30;99.90;;;;;;5027306;28;20033;-52
2020/12/16 08:24:39;;;;;;;6.75;3.47;;;4.30;99.90;;;;;;5028752;28;20033;-53
2020/12/16 08:27:05;;;;;;;11.05;4.45;;;4.40;99.90;;;;;;5022634;28;20105;-53
2020/12/16 08:29:33;;;;;;;8.73;4.70;;;4.40;99.90;;;;;;5022301;28;20450;-53
2020/12/16 08:31:59;;;;;;;11.82;5.72;;;4.50;99.90;;;;;;5011442;28;20050;-56
2020/12/16 08:34:27;;;;;;;14.90;7.90;;;4.50;99.90;;;;;;5014825;28;20135;-57
2020/12/16 08:36:56;;;;;;;12.57;6.57;;;4.50;99.90;;;;;;5026629;28;20053;-53
2020/12/16 08:39:27;;;;;;;13.75;5.72;;;4.50;99.90;;;;;;5026446;28;20471;-51
2020/12/16 08:41:55;;;;;;;12.93;5.13;;;4.60;99.90;;;;;;5011924;28;20049;-49
2020/12/16 08:44:23;;;;;;;9.95;4.70;;;4.60;99.90;;;;;;5008444;28;20030;-50
2020/12/16 08:46:50;;;;;;;14.02;4.80;;;4.70;99.90;;;;;;5016114;28;20047;-51
2020/12/16 08:49:21;;;;;;;10.38;5.05;;;4.70;99.90;;;;;;5027380;28;20124;-51
2020/12/16 08:51:47;;;;;;;10.07;4.75;;;4.80;99.90;;;;;;5020886;28;20136;-48
2020/12/16 08:54:25;;;;;;;11.20;5.57;;;4.80;99.90;;;;;;5028210;28;20111;-47
2020/12/16 08:56:55;;;;;;;8.85;4.35;;;4.90;99.90;;;;;;5028138;28;20035;-50
2020/12/16 08:59:21;;;;;;;11.48;4.97;;;5.00;99.90;;;;;;5009798;28;20064;-55
2020/12/16 09:02:08;;;;;;;11.32;4.85;;;5.10;99.90;;;;;;5018234;28;20049;-56
2020/12/16 09:04:39;;;;;;;12.93;4.55;;;5.00;99.90;;;;;;5023486;28;20091;-51
2020/12/16 09:07:11;;;;;;;8.13;4.22;;;5.00;99.90;;;;;;5013562;28;20067;-54
2020/12/16 09:10:02;;;;;;;13.15;4.93;;;5.00;99.90;;;;;;5016185;28;20033;-51
2020/12/16 09:12:28;;;;;;;11.57;4.38;;;5.00;99.90;;;;;;5026745;28;20132;-54
2020/12/16 09:14:59;;;;;;;14.70;5.00;;;5.00;99.90;;;;;;5021227;28;20080;-56
2020/12/16 09:17:27;;;;;;;11.55;4.38;;;5.10;99.90;;;;;;5019832;28;20465;-49
2020/12/16 09:19:53;;;;;;;8.48;4.43;;;5.00;99.90;;;;;;5028540;28;20036;-55
2020/12/16 09:22:25;;;;;;;8.80;3.70;;;5.00;99.90;;;;;;5026784;28;20042;-51
2020/12/16 09:24:51;;;;;;;10.00;3.83;;;5.00;99.90;;;;;;5027411;28;20037;-55
2020/12/16 09:27:17;;;;;;;9.98;4.28;;;5.10;99.90;;;;;;5030274;28;20033;-49
2020/12/16 09:29:45;;;;;;;19.65;9.07;;;5.20;99.90;;;;;;5025541;28;20045;-54
2020/12/16 09:32:15;;;;;;;18.85;8.25;;;5.20;99.90;;;;;;5023034;28;20037;-51
2020/12/16 09:34:45;;;;;;;22.13;9.38;;;5.20;99.90;;;;;;5029892;28;20029;-51
2020/12/16 09:37:18;;;;;;;17.05;7.65;;;5.20;99.90;;;;;;5026587;28;20038;-49
2020/12/16 09:39:46;;;;;;;7.28;4.03;;;5.20;99.90;;;;;;5014304;28;20502;-54
2020/12/16 09:42:16;;;;;;;8.27;4.28;;;5.20;99.90;;;;;;5029611;28;20485;-53
2020/12/16 09:44:43;;;;;;;9.75;4.22;;;5.30;99.90;;;;;;5028568;28;20103;-52
2020/12/16 09:47:20;;;;;;;10.73;4.97;;;5.30;99.90;;;;;;5030484;28;20037;-51
2020/12/16 09:50:07;;;;;;;7.88;3.85;;;5.30;99.90;;;;;;5028550;28;20029;-51
2020/12/16 09:52:38;;;;;;;11.80;5.03;;;5.40;99.90;;;;;;5020687;28;20441;-50
2020/12/16 09:55:21;;;;;;;11.48;4.80;;;5.40;99.90;;;;;;5011647;28;20037;-52
2020/12/16 09:58:01;;;;;;;10.45;4.53;;;5.30;99.90;;;;;;5010870;28;20100;-53
2020/12/16 10:00:30;;;;;;;9.50;4.55;;;5.30;99.90;;;;;;5019783;28;20057;-51
2020/12/16 10:03:10;;;;;;;8.13;4.22;;;5.20;99.90;;;;;;5022447;28;20045;-51
2020/12/16 10:05:37;;;;;;;10.38;4.88;;;5.30;99.90;;;;;;5015777;28;20635;-53
2020/12/16 10:08:05;;;;;;;10.10;5.28;;;5.30;99.90;;;;;;5026242;28;20443;-52
2020/12/16 10:10:32;;;;;;;10.30;4.82;;;5.40;99.90;;;;;;5022205;28;20034;-51
2020/12/16 10:12:58;;;;;;;12.93;5.60;;;5.50;99.90;;;;;;5028889;28;20056;-53
2020/12/16 10:15:26;;;;;;;11.73;5.75;;;5.60;99.90;;;;;;5029555;28;20049;-49
2020/12/16 10:17:53;;;;;;;12.57;5.75;;;5.70;99.90;;;;;;5017805;28;20025;-51
2020/12/16 10:20:19;;;;;;;11.15;5.20;;;5.80;99.90;;;;;;5019335;28;20510;-52
2020/12/16 10:22:45;;;;;;;15.85;6.25;;;5.80;99.90;;;;;;5019099;28;20048;-54
2020/12/16 10:25:12;;;;;;;9.10;5.57;;;5.90;99.90;;;;;;5024646;28;20037;-55
2020/12/16 10:27:38;;;;;;;9.13;5.68;;;5.90;99.90;;;;;;5021147;28;20125;-55
2020/12/16 10:30:05;;;;;;;13.38;5.40;;;6.00;99.90;;;;;;5008927;28;20061;-50
2020/12/16 10:32:32;;;;;;;11.90;5.40;;;6.00;99.90;;;;;;5010521;28;20029;-52
2020/12/16 10:34:58;;;;;;;10.20;5.70;;;6.10;99.90;;;;;;5020224;28;20061;-51
2020/12/16 10:37:25;;;;;;;22.70;5.63;;;6.20;99.90;;;;;;5023012;28;20041;-54
2020/12/16 10:39:52;;;;;;;10.20;5.57;;;6.20;99.90;;;;;;5017894;28;20033;-50
2020/12/16 10:42:20;;;;;;;10.95;5.13;;;6.30;99.90;;;;;;5029822;28;20462;-50
2020/12/16 10:44:46;;;;;;;12.38;5.93;;;6.40;99.90;;;;;;5010030;28;20108;-53
2020/12/16 10:47:12;;;;;;;10.50;6.15;;;6.40;99.90;;;;;;5017060;28;20175;-52
2020/12/16 10:49:39;;;;;;;13.18;6.18;;;6.60;99.90;;;;;;5026978;28;20041;-53
2020/12/16 10:52:09;;;;;;;14.98;6.50;;;6.60;99.90;;;;;;5025743;28;20513;-53
2020/12/16 10:54:36;;;;;;;13.57;6.70;;;6.70;99.90;;;;;;5025553;28;20094;-50
2020/12/16 10:57:02;;;;;;;12.00;6.57;;;6.70;99.90;;;;;;5025534;28;20030;-51
2020/12/16 10:59:29;;;;;;;15.30;7.82;;;6.70;99.90;;;;;;5018137;28;20058;-51
2020/12/16 11:01:58;;;;;;;13.32;6.55;;;6.90;99.90;;;;;;5022178;28;20091;-49
2020/12/16 11:04:27;;;;;;;13.90;6.70;;;7.00;99.90;;;;;;5028635;28;20165;-52
2020/12/16 11:06:53;;;;;;;14.13;6.03;;;7.00;99.90;;;;;;5027609;28;20374;-55
2020/12/16 11:09:19;;;;;;;13.00;6.15;;;7.00;99.90;;;;;;5025960;28;20048;-51
2020/12/16 11:11:47;;;;;;;12.32;5.65;;;7.00;99.90;;;;;;5022344;28;20033;-52
2020/12/16 11:14:14;;;;;;;12.38;5.70;;;6.90;99.90;;;;;;5017549;28;20064;-55
2020/12/16 11:16:43;;;;;;;10.68;5.88;;;7.00;99.90;;;;;;5029291;28;20449;-50
2020/12/16 11:19:10;;;;;;;14.07;6.47;;;7.00;99.90;;;;;;5025547;28;20482;-51
2020/12/16 11:21:41;;;;;;;12.80;6.15;;;7.00;99.90;;;;;;5020343;28;20516;-50
2020/12/16 11:24:12;;;;;;;21.13;7.05;;;7.00;99.90;;;;;;5021422;28;20473;-55
2020/12/16 11:26:50;;;;;;;14.63;6.50;;;7.00;99.90;;;;;;5027915;28;20501;-53
2020/12/16 11:29:17;;;;;;;11.27;6.03;;;7.00;99.90;;;;;;5024992;28;20048;-51
2020/12/16 11:31:51;;;;;;;10.82;5.43;;;7.00;99.90;;;;;;5025622;28;20029;-51
2020/12/16 11:34:21;;;;;;;11.55;5.85;;;7.10;99.90;;;;;;5020443;28;20025;-50
2020/12/16 11:36:48;;;;;;;13.00;5.28;;;7.10;99.90;;;;;;5026057;28;20512;-56
2020/12/16 11:39:15;;;;;;;13.93;5.07;;;7.10;99.90;;;;;;5020490;28;20072;-56
2020/12/16 11:41:42;;;;;;;12.43;6.63;;;7.20;99.90;;;;;;5010902;28;20635;-51
2020/12/16 11:44:08;;;;;;;14.23;6.97;;;7.10;99.90;;;;;;5024597;28;20041;-56
2020/12/16 11:46:34;;;;;;;9.25;5.55;;;7.20;99.90;;;;;;5027545;28;20110;-53
2020/12/16 11:49:00;;;;;;;11.57;5.75;;;7.10;99.90;;;;;;5015713;28;20060;-49
2020/12/16 11:51:27;;;;;;;16.45;6.53;;;7.10;99.90;;;;;;5009375;28;20056;-54
2020/12/16 11:53:54;;;;;;;15.65;6.00;;;7.10;99.90;;;;;;5027301;28;20492;-49
2020/12/16 11:56:20;;;;;;;12.60;6.25;;;7.10;99.90;;;;;;5028304;28;20037;-50
2020/12/16 11:58:46;;;;;;;18.60;6.15;;;7.10;99.90;;;;;;5021959;28;20795;-49
2020/12/16 12:01:16;;;;;;;14.30;5.60;;;7.10;99.90;;;;;;5021088;28;20040;-52
2020/12/16 12:03:46;;;;;;;16.38;6.22;;;7.30;99.90;;;;;;5026564;28;20183;-53
2020/12/16 12:06:13;;;;;;;12.80;5.45;;;7.30;99.90;;;;;;5010741;28;20033;-53
2020/12/16 12:08:39;;;;;;;16.13;5.57;;;7.40;99.90;;;;;;5015915;28;20095;-56
2020/12/16 12:11:09;;;;;;;16.90;6.47;;;7.50;99.90;;;;;;5014757;28;20045;-51
2020/12/16 12:13:35;;;;;;;11.20;5.35;;;7.60;99.90;;;;;;5025072;28;20045;-52
2020/12/16 12:16:01;;;;;;;23.33;6.25;;;7.60;99.90;;;;;;5024098;28;20111;-54
2020/12/16 12:18:27;;;;;;;18.17;5.70;;;7.60;99.90;;;;;;5016534;28;20121;-53
2020/12/16 12:20:52;;;;;;;12.93;5.45;;;7.80;99.90;;;;;;5011080;28;20057;-51
2020/12/16 12:23:18;;;;;;;15.75;6.57;;;7.90;99.90;;;;;;5027759;28;20053;-52
2020/12/16 12:25:44;;;;;;;13.63;6.65;;;7.90;99.90;;;;;;5027602;28;20021;-55
2020/12/16 12:28:10;;;;;;;17.65;6.18;;;7.90;99.90;;;;;;5022866;28;20026;-53
2020/12/16 12:30:36;;;;;;;17.67;6.50;;;7.90;99.90;;;;;;5023367;28;20320;-53
2020/12/16 12:33:03;;;;;;;18.77;7.25;;;7.80;99.90;;;;;;5011248;28;20500;-57
2020/12/16 12:35:29;;;;;;;12.82;6.78;;;7.80;99.90;;;;;;5027298;28;20115;-53
2020/12/16 12:37:55;;;;;;;13.95;5.93;;;8.00;99.90;;;;;;5019641;28;20493;-56
2020/12/16 12:40:21;;;;;;;15.80;6.40;;;7.90;99.90;;;;;;5025147;28;20378;-56
2020/12/16 12:42:46;;;;;;;14.18;6.40;;;8.00;99.90;;;;;;5026779;28;20450;-51
2020/12/16 12:45:12;;;;;;;22.80;7.95;;;8.00;99.90;;;;;;5027355;28;20079;-50
2020/12/16 12:47:39;;;;;;;24.95;8.38;;;8.10;99.90;;;;;;5023804;28;20263;-51
2020/12/16 12:50:05;;;;;;;18.83;7.03;;;8.00;99.90;;;;;;5027442;28;20041;-51
2020/12/16 12:52:31;;;;;;;15.20;7.85;;;7.90;99.90;;;;;;5029843;28;20029;-53
2020/12/16 12:54:57;;;;;;;14.15;6.82;;;7.80;99.90;;;;;;5029694;28;20438;-53
2020/12/16 12:57:24;;;;;;;17.17;6.75;;;7.80;99.90;;;;;;5012239;28;20117;-50
2020/12/16 12:59:50;;;;;;;13.85;6.05;;;7.80;99.90;;;;;;5029792;28;20065;-51